sensor_id;sensor_type;location;lat;lon;timestamp;P1;durP1;ratioP1;P2;durP2;ratioP2
66585;SDS011;53444;45.822;16.092;2022-11-14T00:00:37;57.42;;;27.70;;
66585;SDS011;53444;45.822;16.092;2022-11-14T00:03:05;58.80;;;28.10;;
66585;SDS011;53444;45.822;16.092;2022-11-14T00:05:34;61.03;;;28.05;;
66585;SDS011;53444;45.822;16.092;2022-11-14T00:08:04;62.95;;;28.15;;
66585;SDS011;53444;45.822;16.092;2022-11-14T00:10:31;65.53;;;31.23;;
66585;SDS011;53444;45.822;16.092;2022-11-14T00:12:59;56.50;;;28.80;;
66585;SDS011;53444;45.822;16.092;2022-11-14T00:15:25;59.88;;;28.55;;
66585;SDS011;53444;45.822;16.092;2022-11-14T00:17:52;57.55;;;27.35;;
66585;SDS011;53444;45.822;16.092;2022-11-14T00:20:19;53.65;;;28.13;;
66585;SDS011;53444;45.822;16.092;2022-11-14T00:22:45;54.75;;;27.52;;
66585;SDS011;53444;45.822;16.092;2022-11-14T00:25:12;59.17;;;29.75;;
66585;SDS011;53444;45.822;16.092;2022-11-14T00:27:38;54.00;;;27.77;;
66585;SDS011;53444;45.822;16.092;2022-11-14T00:30:07;56.53;;;27.08;;
66585;SDS011;53444;45.822;16.092;2022-11-14T00:32:34;54.78;;;27.15;;
66585;SDS011;53444;45.822;16.092;2022-11-14T00:35:00;61.43;;;29.37;;
66585;SDS011;53444;45.822;16.092;2022-11-14T00:37:27;55.90;;;28.42;;
66585;SDS011;53444;45.822;16.092;2022-11-14T00:39:53;61.90;;;28.75;;
66585;SDS011;53444;45.822;16.092;2022-11-14T00:42:20;51.65;;;27.13;;
66585;SDS011;53444;45.822;16.092;2022-11-14T00:44:47;58.70;;;29.90;;
66585;SDS011;53444;45.822;16.092;2022-11-14T00:47:15;55.33;;;28.85;;
66585;SDS011;53444;45.822;16.092;2022-11-14T00:49:41;56.78;;;27.75;;
66585;SDS011;53444;45.822;16.092;2022-11-14T00:52:08;53.72;;;27.90;;
66585;SDS011;53444;45.822;16.092;2022-11-14T00:54:34;63.38;;;29.77;;
66585;SDS011;53444;45.822;16.092;2022-11-14T00:57:01;61.33;;;29.63;;
66585;SDS011;53444;45.822;16.092;2022-11-14T00:59:28;62.53;;;28.55;;
66585;SDS011;53444;45.822;16.092;2022-11-14T01:01:54;55.65;;;28.10;;
66585;SDS011;53444;45.822;16.092;2022-11-14T01:04:22;53.35;;;28.45;;
66585;SDS011;53444;45.822;16.092;2022-11-14T01:06:49;55.25;;;27.27;;
66585;SDS011;53444;45.822;16.092;2022-11-14T01:09:15;60.22;;;29.25;;
66585;SDS011;53444;45.822;16.092;2022-11-14T01:11:42;58.42;;;29.67;;
66585;SDS011;53444;45.822;16.092;2022-11-14T01:14:09;55.03;;;27.45;;
66585;SDS011;53444;45.822;16.092;2022-11-14T01:16:35;56.22;;;28.38;;
66585;SDS011;53444;45.822;16.092;2022-11-14T01:19:02;54.47;;;26.95;;
66585;SDS011;53444;45.822;16.092;2022-11-14T01:21:30;57.90;;;27.80;;
66585;SDS011;53444;45.822;16.092;2022-11-14T01:23:57;60.90;;;29.20;;
66585;SDS011;53444;45.822;16.092;2022-11-14T01:26:23;60.15;;;29.20;;
66585;SDS011;53444;45.822;16.092;2022-11-14T01:28:50;53.20;;;26.20;;
66585;SDS011;53444;45.822;16.092;2022-11-14T01:31:17;53.05;;;25.90;;
66585;SDS011;53444;45.822;16.092;2022-11-14T01:33:47;55.00;;;28.80;;
66585;SDS011;53444;45.822;16.092;2022-11-14T01:36:14;57.07;;;29.17;;
66585;SDS011;53444;45.822;16.092;2022-11-14T01:38:42;58.22;;;28.55;;
66585;SDS011;53444;45.822;16.092;2022-11-14T01:41:08;56.42;;;27.05;;
66585;SDS011;53444;45.822;16.092;2022-11-14T01:43:38;59.50;;;27.77;;
66585;SDS011;53444;45.822;16.092;2022-11-14T01:46:06;66.35;;;29.38;;
66585;SDS011;53444;45.822;16.092;2022-11-14T01:48:36;57.33;;;27.83;;
66585;SDS011;53444;45.822;16.092;2022-11-14T01:51:13;56.67;;;28.25;;
66585;SDS011;53444;45.822;16.092;2022-11-14T01:53:45;54.78;;;28.33;;
66585;SDS011;53444;45.822;16.092;2022-11-14T01:56:16;58.05;;;27.85;;
66585;SDS011;53444;45.822;16.092;2022-11-14T01:58:51;58.72;;;28.45;;
66585;SDS011;53444;45.822;16.092;2022-11-14T02:01:19;57.33;;;29.97;;
66585;SDS011;53444;45.822;16.092;2022-11-14T02:03:47;59.65;;;27.77;;
66585;SDS011;53444;45.822;16.092;2022-11-14T02:06:17;56.90;;;26.45;;
66585;SDS011;53444;45.822;16.092;2022-11-14T02:08:47;55.13;;;27.33;;
66585;SDS011;53444;45.822;16.092;2022-11-14T02:11:16;60.00;;;27.42;;
66585;SDS011;53444;45.822;16.092;2022-11-14T02:13:42;55.83;;;26.83;;
66585;SDS011;53444;45.822;16.092;2022-11-14T02:16:09;52.67;;;25.67;;
66585;SDS011;53444;45.822;16.092;2022-11-14T02:18:35;53.97;;;27.48;;
66585;SDS011;53444;45.822;16.092;2022-11-14T02:21:03;53.92;;;26.67;;
66585;SDS011;53444;45.822;16.092;2022-11-14T02:23:30;58.78;;;28.42;;
66585;SDS011;53444;45.822;16.092;2022-11-14T02:25:57;51.22;;;25.58;;
66585;SDS011;53444;45.822;16.092;2022-11-14T02:28:24;50.08;;;25.48;;
66585;SDS011;53444;45.822;16.092;2022-11-14T02:30:51;57.65;;;26.55;;
66585;SDS011;53444;45.822;16.092;2022-11-14T02:33:18;55.85;;;25.65;;
66585;SDS011;53444;45.822;16.092;2022-11-14T02:35:44;51.30;;;25.98;;
66585;SDS011;53444;45.822;16.092;2022-11-14T02:38:12;49.37;;;25.97;;
66585;SDS011;53444;45.822;16.092;2022-11-14T02:40:39;52.90;;;24.45;;
66585;SDS011;53444;45.822;16.092;2022-11-14T02:43:06;48.85;;;24.63;;
66585;SDS011;53444;45.822;16.092;2022-11-14T02:45:32;50.92;;;25.05;;
66585;SDS011;53444;45.822;16.092;2022-11-14T02:47:59;52.67;;;24.60;;
66585;SDS011;53444;45.822;16.092;2022-11-14T02:50:26;51.83;;;25.70;;
66585;SDS011;53444;45.822;16.092;2022-11-14T02:52:52;46.00;;;22.65;;
66585;SDS011;53444;45.822;16.092;2022-11-14T02:55:21;46.58;;;22.67;;
66585;SDS011;53444;45.822;16.092;2022-11-14T02:57:47;49.47;;;22.90;;
66585;SDS011;53444;45.822;16.092;2022-11-14T03:00:14;48.70;;;21.42;;
66585;SDS011;53444;45.822;16.092;2022-11-14T03:02:42;44.60;;;22.17;;
66585;SDS011;53444;45.822;16.092;2022-11-14T03:05:08;46.22;;;22.50;;
66585;SDS011;53444;45.822;16.092;2022-11-14T03:07:35;44.20;;;23.15;;
66585;SDS011;53444;45.822;16.092;2022-11-14T03:10:02;41.88;;;22.15;;
66585;SDS011;53444;45.822;16.092;2022-11-14T03:12:30;46.90;;;22.52;;
66585;SDS011;53444;45.822;16.092;2022-11-14T03:14:57;46.37;;;21.53;;
66585;SDS011;53444;45.822;16.092;2022-11-14T03:17:23;48.17;;;21.75;;
66585;SDS011;53444;45.822;16.092;2022-11-14T03:19:50;46.33;;;23.33;;
66585;SDS011;53444;45.822;16.092;2022-11-14T03:22:16;46.90;;;23.10;;
66585;SDS011;53444;45.822;16.092;2022-11-14T03:24:43;47.08;;;24.15;;
66585;SDS011;53444;45.822;16.092;2022-11-14T03:27:10;48.53;;;25.37;;
66585;SDS011;53444;45.822;16.092;2022-11-14T03:29:37;50.42;;;24.67;;
66585;SDS011;53444;45.822;16.092;2022-11-14T03:32:04;44.05;;;22.90;;
66585;SDS011;53444;45.822;16.092;2022-11-14T03:34:31;49.92;;;23.58;;
66585;SDS011;53444;45.822;16.092;2022-11-14T03:36:57;54.72;;;26.35;;
66585;SDS011;53444;45.822;16.092;2022-11-14T03:39:24;46.47;;;24.13;;
66585;SDS011;53444;45.822;16.092;2022-11-14T03:41:51;47.30;;;22.83;;
66585;SDS011;53444;45.822;16.092;2022-11-14T03:44:18;46.08;;;24.77;;
66585;SDS011;53444;45.822;16.092;2022-11-14T03:46:46;51.58;;;26.10;;
66585;SDS011;53444;45.822;16.092;2022-11-14T03:49:12;52.67;;;24.10;;
66585;SDS011;53444;45.822;16.092;2022-11-14T03:51:39;48.27;;;24.30;;
66585;SDS011;53444;45.822;16.092;2022-11-14T03:54:05;50.00;;;22.65;;
66585;SDS011;53444;45.822;16.092;2022-11-14T03:56:32;44.10;;;23.42;;
66585;SDS011;53444;45.822;16.092;2022-11-14T03:58:59;47.28;;;23.52;;
66585;SDS011;53444;45.822;16.092;2022-11-14T04:04:11;46.77;;;25.37;;
66585;SDS011;53444;45.822;16.092;2022-11-14T04:06:41;46.95;;;24.05;;
66585;SDS011;53444;45.822;16.092;2022-11-14T04:09:08;47.60;;;22.55;;
66585;SDS011;53444;45.822;16.092;2022-11-14T04:11:35;46.38;;;22.48;;
66585;SDS011;53444;45.822;16.092;2022-11-14T04:14:02;45.90;;;23.30;;
66585;SDS011;53444;45.822;16.092;2022-11-14T04:16:28;45.40;;;21.17;;
66585;SDS011;53444;45.822;16.092;2022-11-14T04:18:55;39.42;;;21.52;;
66585;SDS011;53444;45.822;16.092;2022-11-14T04:23:56;43.67;;;22.23;;
66585;SDS011;53444;45.822;16.092;2022-11-14T04:26:23;39.05;;;20.13;;
66585;SDS011;53444;45.822;16.092;2022-11-14T04:28:49;39.37;;;20.43;;
66585;SDS011;53444;45.822;16.092;2022-11-14T04:31:16;39.05;;;20.27;;
66585;SDS011;53444;45.822;16.092;2022-11-14T04:33:42;41.78;;;20.40;;
66585;SDS011;53444;45.822;16.092;2022-11-14T04:36:09;35.92;;;18.58;;
66585;SDS011;53444;45.822;16.092;2022-11-14T04:38:36;40.00;;;20.45;;
66585;SDS011;53444;45.822;16.092;2022-11-14T04:41:04;36.70;;;18.77;;
66585;SDS011;53444;45.822;16.092;2022-11-14T04:43:31;37.00;;;18.73;;
66585;SDS011;53444;45.822;16.092;2022-11-14T04:45:58;36.65;;;18.90;;
66585;SDS011;53444;45.822;16.092;2022-11-14T04:48:24;35.33;;;18.17;;
66585;SDS011;53444;45.822;16.092;2022-11-14T04:50:51;36.85;;;19.42;;
66585;SDS011;53444;45.822;16.092;2022-11-14T04:53:17;38.33;;;19.63;;
66585;SDS011;53444;45.822;16.092;2022-11-14T04:55:44;38.65;;;19.02;;
66585;SDS011;53444;45.822;16.092;2022-11-14T04:58:12;37.92;;;18.98;;
66585;SDS011;53444;45.822;16.092;2022-11-14T05:00:38;37.83;;;18.73;;
66585;SDS011;53444;45.822;16.092;2022-11-14T05:03:05;39.20;;;20.50;;
66585;SDS011;53444;45.822;16.092;2022-11-14T05:05:32;43.65;;;21.25;;
66585;SDS011;53444;45.822;16.092;2022-11-14T05:07:58;50.10;;;21.25;;
66585;SDS011;53444;45.822;16.092;2022-11-14T05:10:25;53.40;;;21.95;;
66585;SDS011;53444;45.822;16.092;2022-11-14T05:12:52;56.63;;;23.00;;
66585;SDS011;53444;45.822;16.092;2022-11-14T05:15:20;53.90;;;22.38;;
66585;SDS011;53444;45.822;16.092;2022-11-14T05:17:47;46.10;;;21.13;;
66585;SDS011;53444;45.822;16.092;2022-11-14T05:20:14;53.15;;;22.90;;
66585;SDS011;53444;45.822;16.092;2022-11-14T05:22:41;52.38;;;22.92;;
66585;SDS011;53444;45.822;16.092;2022-11-14T05:25:07;54.15;;;22.15;;
66585;SDS011;53444;45.822;16.092;2022-11-14T05:27:35;43.53;;;21.27;;
66585;SDS011;53444;45.822;16.092;2022-11-14T05:30:01;53.08;;;21.23;;
66585;SDS011;53444;45.822;16.092;2022-11-14T05:32:30;48.65;;;20.63;;
66585;SDS011;53444;45.822;16.092;2022-11-14T05:34:56;59.30;;;21.73;;
66585;SDS011;53444;45.822;16.092;2022-11-14T05:37:23;50.80;;;20.70;;
66585;SDS011;53444;45.822;16.092;2022-11-14T05:39:49;58.92;;;22.98;;
66585;SDS011;53444;45.822;16.092;2022-11-14T05:42:16;50.33;;;21.20;;
66585;SDS011;53444;45.822;16.092;2022-11-14T05:44:42;52.53;;;22.40;;
66585;SDS011;53444;45.822;16.092;2022-11-14T05:47:09;57.35;;;24.08;;
66585;SDS011;53444;45.822;16.092;2022-11-14T05:49:37;58.53;;;24.05;;
66585;SDS011;53444;45.822;16.092;2022-11-14T05:52:04;69.95;;;25.25;;
66585;SDS011;53444;45.822;16.092;2022-11-14T05:54:30;67.50;;;24.50;;
66585;SDS011;53444;45.822;16.092;2022-11-14T05:56:57;53.45;;;23.20;;
66585;SDS011;53444;45.822;16.092;2022-11-14T05:59:23;64.85;;;25.42;;
66585;SDS011;53444;45.822;16.092;2022-11-14T06:01:50;63.53;;;26.77;;
66585;SDS011;53444;45.822;16.092;2022-11-14T06:04:16;68.53;;;24.25;;
66585;SDS011;53444;45.822;16.092;2022-11-14T06:06:44;57.77;;;23.47;;
66585;SDS011;53444;45.822;16.092;2022-11-14T06:09:11;48.05;;;21.55;;
66585;SDS011;53444;45.822;16.092;2022-11-14T06:11:40;55.53;;;21.67;;
66585;SDS011;53444;45.822;16.092;2022-11-14T06:14:07;55.65;;;23.67;;
66585;SDS011;53444;45.822;16.092;2022-11-14T06:16:34;58.88;;;22.10;;
66585;SDS011;53444;45.822;16.092;2022-11-14T06:19:00;57.83;;;22.27;;
66585;SDS011;53444;45.822;16.092;2022-11-14T06:21:28;51.38;;;21.75;;
66585;SDS011;53444;45.822;16.092;2022-11-14T06:23:56;56.53;;;23.73;;
66585;SDS011;53444;45.822;16.092;2022-11-14T06:26:23;53.45;;;22.10;;
66585;SDS011;53444;45.822;16.092;2022-11-14T06:28:51;54.45;;;21.85;;
66585;SDS011;53444;45.822;16.092;2022-11-14T06:31:18;55.30;;;21.83;;
66585;SDS011;53444;45.822;16.092;2022-11-14T06:33:46;69.93;;;23.23;;
66585;SDS011;53444;45.822;16.092;2022-11-14T06:36:13;52.60;;;21.75;;
66585;SDS011;53444;45.822;16.092;2022-11-14T06:38:40;57.22;;;22.92;;
66585;SDS011;53444;45.822;16.092;2022-11-14T06:41:09;49.33;;;18.77;;
66585;SDS011;53444;45.822;16.092;2022-11-14T06:43:37;42.53;;;18.30;;
66585;SDS011;53444;45.822;16.092;2022-11-14T06:46:05;40.13;;;18.67;;
66585;SDS011;53444;45.822;16.092;2022-11-14T06:48:34;40.88;;;18.33;;
66585;SDS011;53444;45.822;16.092;2022-11-14T06:51:01;45.92;;;19.17;;
66585;SDS011;53444;45.822;16.092;2022-11-14T06:53:29;40.70;;;18.10;;
66585;SDS011;53444;45.822;16.092;2022-11-14T06:56:01;42.43;;;18.10;;
66585;SDS011;53444;45.822;16.092;2022-11-14T06:58:31;45.72;;;17.75;;
66585;SDS011;53444;45.822;16.092;2022-11-14T07:01:02;47.28;;;19.08;;
66585;SDS011;53444;45.822;16.092;2022-11-14T07:03:30;42.42;;;20.45;;
66585;SDS011;53444;45.822;16.092;2022-11-14T07:05:56;40.92;;;20.30;;
66585;SDS011;53444;45.822;16.092;2022-11-14T07:08:23;44.17;;;20.23;;
66585;SDS011;53444;45.822;16.092;2022-11-14T07:10:49;45.50;;;20.27;;
66585;SDS011;53444;45.822;16.092;2022-11-14T07:13:16;44.08;;;18.95;;
66585;SDS011;53444;45.822;16.092;2022-11-14T07:15:49;50.67;;;19.63;;
66585;SDS011;53444;45.822;16.092;2022-11-14T07:18:17;48.72;;;19.63;;
66585;SDS011;53444;45.822;16.092;2022-11-14T07:20:44;47.37;;;18.93;;
66585;SDS011;53444;45.822;16.092;2022-11-14T07:23:11;44.80;;;20.55;;
66585;SDS011;53444;45.822;16.092;2022-11-14T07:25:37;47.80;;;20.15;;
66585;SDS011;53444;45.822;16.092;2022-11-14T07:28:04;47.38;;;18.90;;
66585;SDS011;53444;45.822;16.092;2022-11-14T07:30:31;45.25;;;19.92;;
66585;SDS011;53444;45.822;16.092;2022-11-14T07:33:00;44.00;;;19.10;;
66585;SDS011;53444;45.822;16.092;2022-11-14T07:35:26;42.90;;;18.77;;
66585;SDS011;53444;45.822;16.092;2022-11-14T07:37:57;51.95;;;19.90;;
66585;SDS011;53444;45.822;16.092;2022-11-14T07:40:26;45.50;;;19.58;;
66585;SDS011;53444;45.822;16.092;2022-11-14T07:42:55;43.55;;;18.70;;
66585;SDS011;53444;45.822;16.092;2022-11-14T07:45:22;42.17;;;17.77;;
66585;SDS011;53444;45.822;16.092;2022-11-14T07:47:49;40.38;;;18.50;;
66585;SDS011;53444;45.822;16.092;2022-11-14T07:50:21;38.92;;;17.70;;
66585;SDS011;53444;45.822;16.092;2022-11-14T07:52:49;41.92;;;18.08;;
66585;SDS011;53444;45.822;16.092;2022-11-14T07:55:16;39.83;;;17.13;;
66585;SDS011;53444;45.822;16.092;2022-11-14T07:57:42;30.30;;;13.83;;
66585;SDS011;53444;45.822;16.092;2022-11-14T08:00:10;31.60;;;14.45;;
66585;SDS011;53444;45.822;16.092;2022-11-14T08:02:37;36.95;;;14.23;;
66585;SDS011;53444;45.822;16.092;2022-11-14T08:05:04;33.70;;;14.77;;
66585;SDS011;53444;45.822;16.092;2022-11-14T08:07:32;37.22;;;15.05;;
66585;SDS011;53444;45.822;16.092;2022-11-14T08:09:58;38.93;;;16.63;;
66585;SDS011;53444;45.822;16.092;2022-11-14T08:12:25;40.00;;;15.90;;
66585;SDS011;53444;45.822;16.092;2022-11-14T08:14:52;34.63;;;16.00;;
66585;SDS011;53444;45.822;16.092;2022-11-14T08:17:18;41.53;;;16.20;;
66585;SDS011;53444;45.822;16.092;2022-11-14T08:19:45;44.10;;;16.58;;
66585;SDS011;53444;45.822;16.092;2022-11-14T08:22:12;42.63;;;16.70;;
66585;SDS011;53444;45.822;16.092;2022-11-14T08:24:40;51.85;;;20.63;;
66585;SDS011;53444;45.822;16.092;2022-11-14T08:27:06;42.08;;;17.38;;
66585;SDS011;53444;45.822;16.092;2022-11-14T08:29:33;42.55;;;16.55;;
66585;SDS011;53444;45.822;16.092;2022-11-14T08:31:59;45.08;;;17.77;;
66585;SDS011;53444;45.822;16.092;2022-11-14T08:34:26;50.73;;;18.50;;
66585;SDS011;53444;45.822;16.092;2022-11-14T08:36:53;44.88;;;18.25;;
66585;SDS011;53444;45.822;16.092;2022-11-14T08:39:21;44.45;;;19.67;;
66585;SDS011;53444;45.822;16.092;2022-11-14T08:41:49;44.42;;;19.00;;
66585;SDS011;53444;45.822;16.092;2022-11-14T08:44:15;44.63;;;18.10;;
66585;SDS011;53444;45.822;16.092;2022-11-14T08:46:42;37.77;;;15.97;;
66585;SDS011;53444;45.822;16.092;2022-11-14T08:49:11;41.92;;;18.42;;
66585;SDS011;53444;45.822;16.092;2022-11-14T08:51:38;38.13;;;16.40;;
66585;SDS011;53444;45.822;16.092;2022-11-14T08:54:05;47.67;;;17.50;;
66585;SDS011;53444;45.822;16.092;2022-11-14T08:56:31;36.50;;;17.08;;
66585;SDS011;53444;45.822;16.092;2022-11-14T08:59:01;46.15;;;17.40;;
66585;SDS011;53444;45.822;16.092;2022-11-14T09:01:28;45.70;;;17.63;;
66585;SDS011;53444;45.822;16.092;2022-11-14T09:03:56;45.00;;;17.65;;
66585;SDS011;53444;45.822;16.092;2022-11-14T09:06:23;42.83;;;17.33;;
66585;SDS011;53444;45.822;16.092;2022-11-14T09:08:49;41.55;;;17.70;;
66585;SDS011;53444;45.822;16.092;2022-11-14T09:11:16;46.20;;;18.35;;
66585;SDS011;53444;45.822;16.092;2022-11-14T09:13:43;44.65;;;17.13;;
66585;SDS011;53444;45.822;16.092;2022-11-14T09:16:11;38.90;;;16.88;;
66585;SDS011;53444;45.822;16.092;2022-11-14T09:18:37;50.03;;;20.70;;
66585;SDS011;53444;45.822;16.092;2022-11-14T09:21:05;50.80;;;18.98;;
66585;SDS011;53444;45.822;16.092;2022-11-14T09:23:33;44.42;;;17.90;;
66585;SDS011;53444;45.822;16.092;2022-11-14T09:26:02;45.63;;;17.27;;
66585;SDS011;53444;45.822;16.092;2022-11-14T09:28:29;42.65;;;17.48;;
66585;SDS011;53444;45.822;16.092;2022-11-14T09:30:58;45.70;;;19.45;;
66585;SDS011;53444;45.822;16.092;2022-11-14T09:33:27;51.05;;;19.55;;
66585;SDS011;53444;45.822;16.092;2022-11-14T09:35:57;42.15;;;16.58;;
66585;SDS011;53444;45.822;16.092;2022-11-14T09:38:24;46.53;;;19.63;;
66585;SDS011;53444;45.822;16.092;2022-11-14T09:40:54;45.75;;;17.90;;
66585;SDS011;53444;45.822;16.092;2022-11-14T09:43:30;46.25;;;19.60;;
66585;SDS011;53444;45.822;16.092;2022-11-14T09:46:10;47.45;;;18.88;;
66585;SDS011;53444;45.822;16.092;2022-11-14T09:48:45;44.42;;;16.15;;
66585;SDS011;53444;45.822;16.092;2022-11-14T09:51:14;47.42;;;18.58;;
66585;SDS011;53444;45.822;16.092;2022-11-14T09:53:45;44.13;;;16.98;;
66585;SDS011;53444;45.822;16.092;2022-11-14T09:56:17;42.17;;;17.77;;
66585;SDS011;53444;45.822;16.092;2022-11-14T09:58:46;46.67;;;18.20;;
66585;SDS011;53444;45.822;16.092;2022-11-14T10:01:14;52.17;;;19.50;;
66585;SDS011;53444;45.822;16.092;2022-11-14T10:03:50;41.80;;;16.55;;
66585;SDS011;53444;45.822;16.092;2022-11-14T10:06:25;45.80;;;19.13;;
66585;SDS011;53444;45.822;16.092;2022-11-14T10:09:05;49.25;;;18.98;;
66585;SDS011;53444;45.822;16.092;2022-11-14T10:12:03;45.75;;;18.13;;
66585;SDS011;53444;45.822;16.092;2022-11-14T10:14:48;56.17;;;21.43;;
66585;SDS011;53444;45.822;16.092;2022-11-14T10:17:31;46.22;;;18.70;;
66585;SDS011;53444;45.822;16.092;2022-11-14T10:20:12;50.67;;;17.88;;
66585;SDS011;53444;45.822;16.092;2022-11-14T10:22:56;44.50;;;19.83;;
66585;SDS011;53444;45.822;16.092;2022-11-14T10:25:33;57.38;;;21.33;;
66585;SDS011;53444;45.822;16.092;2022-11-14T10:28:19;52.17;;;20.20;;
66585;SDS011;53444;45.822;16.092;2022-11-14T10:31:06;58.45;;;21.25;;
66585;SDS011;53444;45.822;16.092;2022-11-14T10:33:45;57.17;;;21.00;;
66585;SDS011;53444;45.822;16.092;2022-11-14T10:36:22;58.15;;;20.80;;
66585;SDS011;53444;45.822;16.092;2022-11-14T10:39:02;56.72;;;21.73;;
66585;SDS011;53444;45.822;16.092;2022-11-14T10:41:34;48.90;;;20.27;;
66585;SDS011;53444;45.822;16.092;2022-11-14T10:44:02;55.60;;;19.55;;
66585;SDS011;53444;45.822;16.092;2022-11-14T10:46:31;52.20;;;20.10;;
66585;SDS011;53444;45.822;16.092;2022-11-14T10:49:10;53.50;;;20.42;;
66585;SDS011;53444;45.822;16.092;2022-11-14T10:51:42;49.53;;;20.85;;
66585;SDS011;53444;45.822;16.092;2022-11-14T10:54:15;55.42;;;20.75;;
66585;SDS011;53444;45.822;16.092;2022-11-14T10:56:45;59.65;;;20.80;;
66585;SDS011;53444;45.822;16.092;2022-11-14T10:59:12;56.67;;;21.80;;
66585;SDS011;53444;45.822;16.092;2022-11-14T11:01:40;53.20;;;21.95;;
66585;SDS011;53444;45.822;16.092;2022-11-14T11:04:12;52.53;;;20.30;;
66585;SDS011;53444;45.822;16.092;2022-11-14T11:06:45;55.83;;;22.88;;
66585;SDS011;53444;45.822;16.092;2022-11-14T11:09:12;60.90;;;21.35;;
66585;SDS011;53444;45.822;16.092;2022-11-14T11:12:00;60.35;;;23.52;;
66585;SDS011;53444;45.822;16.092;2022-11-14T11:14:28;54.75;;;20.73;;
66585;SDS011;53444;45.822;16.092;2022-11-14T11:19:43;56.70;;;22.57;;
66585;SDS011;53444;45.822;16.092;2022-11-14T11:25:00;52.35;;;21.35;;
66585;SDS011;53444;45.822;16.092;2022-11-14T11:27:27;57.40;;;21.13;;
66585;SDS011;53444;45.822;16.092;2022-11-14T11:30:06;59.88;;;21.60;;
66585;SDS011;53444;45.822;16.092;2022-11-14T11:32:42;55.70;;;21.63;;
66585;SDS011;53444;45.822;16.092;2022-11-14T11:35:10;60.28;;;20.20;;
66585;SDS011;53444;45.822;16.092;2022-11-14T11:37:40;47.33;;;19.25;;
66585;SDS011;53444;45.822;16.092;2022-11-14T11:40:12;54.30;;;22.50;;
66585;SDS011;53444;45.822;16.092;2022-11-14T11:42:44;55.03;;;20.95;;
66585;SDS011;53444;45.822;16.092;2022-11-14T11:45:15;53.28;;;20.40;;
66585;SDS011;53444;45.822;16.092;2022-11-14T11:47:43;50.75;;;20.42;;
66585;SDS011;53444;45.822;16.092;2022-11-14T11:50:15;53.58;;;21.27;;
66585;SDS011;53444;45.822;16.092;2022-11-14T11:52:49;58.28;;;21.40;;
66585;SDS011;53444;45.822;16.092;2022-11-14T11:55:23;48.90;;;19.73;;
66585;SDS011;53444;45.822;16.092;2022-11-14T11:57:55;60.55;;;21.42;;
66585;SDS011;53444;45.822;16.092;2022-11-14T12:00:26;44.20;;;18.67;;
66585;SDS011;53444;45.822;16.092;2022-11-14T12:02:54;61.30;;;20.33;;
66585;SDS011;53444;45.822;16.092;2022-11-14T12:05:23;53.60;;;19.67;;
66585;SDS011;53444;45.822;16.092;2022-11-14T12:07:56;53.35;;;19.77;;
66585;SDS011;53444;45.822;16.092;2022-11-14T12:10:29;51.25;;;19.30;;
66585;SDS011;53444;45.822;16.092;2022-11-14T12:16:10;47.63;;;17.75;;
66585;SDS011;53444;45.822;16.092;2022-11-14T12:19:04;46.95;;;19.33;;
66585;SDS011;53444;45.822;16.092;2022-11-14T12:21:48;47.83;;;17.45;;
66585;SDS011;53444;45.822;16.092;2022-11-14T12:24:52;47.67;;;18.35;;
66585;SDS011;53444;45.822;16.092;2022-11-14T12:27:33;50.13;;;18.98;;
66585;SDS011;53444;45.822;16.092;2022-11-14T12:30:11;51.75;;;19.33;;
66585;SDS011;53444;45.822;16.092;2022-11-14T12:32:41;47.50;;;18.90;;
66585;SDS011;53444;45.822;16.092;2022-11-14T12:35:14;42.97;;;18.00;;
66585;SDS011;53444;45.822;16.092;2022-11-14T12:37:45;45.15;;;18.00;;
66585;SDS011;53444;45.822;16.092;2022-11-14T12:40:23;43.08;;;16.42;;
66585;SDS011;53444;45.822;16.092;2022-11-14T12:42:52;44.72;;;17.63;;
66585;SDS011;53444;45.822;16.092;2022-11-14T12:48:22;42.67;;;17.80;;
66585;SDS011;53444;45.822;16.092;2022-11-14T12:50:56;45.33;;;17.90;;
66585;SDS011;53444;45.822;16.092;2022-11-14T12:53:37;50.70;;;17.23;;
66585;SDS011;53444;45.822;16.092;2022-11-14T12:56:13;43.58;;;16.70;;
66585;SDS011;53444;45.822;16.092;2022-11-14T13:01:59;40.25;;;16.23;;
66585;SDS011;53444;45.822;16.092;2022-11-14T13:04:41;43.03;;;16.08;;
66585;SDS011;53444;45.822;16.092;2022-11-14T13:07:23;47.22;;;17.83;;
66585;SDS011;53444;45.822;16.092;2022-11-14T13:10:09;39.88;;;16.02;;
66585;SDS011;53444;45.822;16.092;2022-11-14T13:12:40;42.80;;;18.00;;
66585;SDS011;53444;45.822;16.092;2022-11-14T13:15:27;43.08;;;17.17;;
66585;SDS011;53444;45.822;16.092;2022-11-14T13:18:14;45.17;;;17.20;;
66585;SDS011;53444;45.822;16.092;2022-11-14T13:21:03;41.45;;;16.13;;
66585;SDS011;53444;45.822;16.092;2022-11-14T13:23:53;42.10;;;15.48;;
66585;SDS011;53444;45.822;16.092;2022-11-14T13:26:36;43.10;;;15.90;;
66585;SDS011;53444;45.822;16.092;2022-11-14T13:29:07;42.20;;;15.15;;
66585;SDS011;53444;45.822;16.092;2022-11-14T13:35:20;38.60;;;15.48;;
66585;SDS011;53444;45.822;16.092;2022-11-14T13:38:01;48.92;;;17.45;;
66585;SDS011;53444;45.822;16.092;2022-11-14T13:40:40;45.50;;;16.08;;
66585;SDS011;53444;45.822;16.092;2022-11-14T13:43:14;39.05;;;15.98;;
66585;SDS011;53444;45.822;16.092;2022-11-14T13:45:49;45.45;;;17.52;;
66585;SDS011;53444;45.822;16.092;2022-11-14T13:48:29;40.10;;;16.42;;
66585;SDS011;53444;45.822;16.092;2022-11-14T13:51:08;42.85;;;17.33;;
66585;SDS011;53444;45.822;16.092;2022-11-14T13:53:38;45.83;;;16.55;;
66585;SDS011;53444;45.822;16.092;2022-11-14T13:56:09;38.65;;;14.90;;
66585;SDS011;53444;45.822;16.092;2022-11-14T13:58:58;41.67;;;15.27;;
66585;SDS011;53444;45.822;16.092;2022-11-14T14:01:55;37.80;;;14.95;;
66585;SDS011;53444;45.822;16.092;2022-11-14T14:04:39;34.92;;;14.48;;
66585;SDS011;53444;45.822;16.092;2022-11-14T14:07:16;37.72;;;14.77;;
66585;SDS011;53444;45.822;16.092;2022-11-14T14:09:55;36.80;;;13.43;;
66585;SDS011;53444;45.822;16.092;2022-11-14T14:12:31;35.42;;;13.35;;
66585;SDS011;53444;45.822;16.092;2022-11-14T14:15:14;37.47;;;14.63;;
66585;SDS011;53444;45.822;16.092;2022-11-14T14:17:51;33.67;;;15.20;;
66585;SDS011;53444;45.822;16.092;2022-11-14T14:20:35;40.90;;;16.92;;
66585;SDS011;53444;45.822;16.092;2022-11-14T14:23:19;36.88;;;15.88;;
66585;SDS011;53444;45.822;16.092;2022-11-14T14:25:55;34.08;;;15.48;;
66585;SDS011;53444;45.822;16.092;2022-11-14T14:28:32;34.13;;;14.50;;
66585;SDS011;53444;45.822;16.092;2022-11-14T14:31:09;38.28;;;14.82;;
66585;SDS011;53444;45.822;16.092;2022-11-14T14:33:40;35.25;;;14.52;;
66585;SDS011;53444;45.822;16.092;2022-11-14T14:36:15;33.88;;;12.68;;
66585;SDS011;53444;45.822;16.092;2022-11-14T14:38:43;29.00;;;13.63;;
66585;SDS011;53444;45.822;16.092;2022-11-14T14:41:10;26.80;;;12.57;;
66585;SDS011;53444;45.822;16.092;2022-11-14T14:43:39;33.13;;;14.50;;
66585;SDS011;53444;45.822;16.092;2022-11-14T14:46:07;32.20;;;14.38;;
66585;SDS011;53444;45.822;16.092;2022-11-14T14:48:34;32.35;;;14.73;;